Time;durP1;ratioP1;P1;durP2;ratioP2;P2;SDS_P1;SDS_P2;PMS_P1;PMS_P2;Temp;Humidity;BMP_temperature;BMP_pressure;BME280_temperature;BME280_humidity;BME280_pressure;Samples;Min_cycle;Max_cycle;Signal;HPM_P1;HPM_P2
2022/01/08 00:00:34;;;;;;;;;;;0.40;78.10;;;;;;5089241;28;20005;-66
2022/01/08 00:03:00;;;;;;;;;;;0.30;78.10;;;;;;5090027;28;19950;-66
2022/01/08 00:11:09;;;;;;;;;;;0.20;79.30;;;;;;5099543;27;19916;-68
2022/01/08 00:13:37;;;;;;;;;;;0.10;80.60;;;;;;5090706;28;20374;-68
2022/01/08 08:03:48;;;;;;;;;;;-3274.70;91.00;;;;;;5110414;27;19938;-68
2022/01/08 08:08:27;;;;;;;;;;;-3275.40;91.60;;;;;;5111005;27;19912;-68
2022/01/08 08:11:52;;;;;;;;;;;-3275.50;91.60;;;;;;5089957;27;19924;-66
2022/01/08 08:14:18;;;;;;;;;;;-3275.70;91.40;;;;;;5090203;28;19922;-66
2022/01/08 08:25:59;;;;;;;;;;;-3275.70;91.20;;;;;;5097906;27;19916;-69
2022/01/08 08:28:25;;;;;;;;;;;-3276.00;90.20;;;;;;5090532;28;19919;-66
2022/01/08 08:30:50;;;;;;;;;;;-3276.10;90.10;;;;;;5090348;28;19912;-66
2022/01/08 08:33:16;;;;;;;;;;;-3276.10;89.70;;;;;;5090572;28;19966;-66
2022/01/08 08:35:43;;;;;;;;;;;-3276.20;89.50;;;;;;5122782;28;19955;-66
2022/01/08 08:38:09;;;;;;;;;;;-3276.30;89.20;;;;;;5089401;28;19948;-66
2022/01/08 08:43:17;;;;;;;;;;;-3276.40;89.10;;;;;;5106492;27;20289;-68
2022/01/08 08:45:43;;;;;;;;;;;-3276.50;88.90;;;;;;5090681;28;19962;-68
2022/01/08 08:48:08;;;;;;;;;;;-3276.60;88.70;;;;;;5090611;28;19952;-68
2022/01/08 08:50:34;;;;;;;;;;;-3276.60;88.10;;;;;;5090554;28;19971;-68
2022/01/08 08:52:59;;;;;;;;;;;-3276.70;87.80;;;;;;5090275;28;20283;-68
2022/01/08 08:55:25;;;;;;;;;;;-3276.70;87.50;;;;;;5090774;28;20255;-68
2022/01/08 08:57:51;;;;;;;;;;;0.00;86.60;;;;;;5090748;28;19951;-68
2022/01/08 09:00:17;;;;;;;;;;;0.00;86.60;;;;;;5090701;28;20362;-68
2022/01/08 09:02:42;;;;;;;;;;;0.10;87.00;;;;;;5122476;27;19918;-68
2022/01/08 09:05:08;;;;;;;;;;;0.10;86.70;;;;;;5090131;28;19999;-68
2022/01/08 09:07:34;;;;;;;;;;;0.20;86.50;;;;;;5089787;28;20304;-66
2022/01/08 09:10:01;;;;;;;;;;;0.20;86.20;;;;;;5089812;28;19916;-66
2022/01/08 09:12:26;;;;;;;;;;;0.30;86.10;;;;;;5088926;28;19916;-66
2022/01/08 09:14:52;;;;;;;;;;;0.40;85.90;;;;;;5081107;28;19909;-66
2022/01/08 09:20:18;;;;;;;;;;;0.50;85.90;;;;;;5090779;27;19916;-66
2022/01/08 09:23:54;;;;;;;;;;;0.60;85.50;;;;;;5106148;27;19922;-69
2022/01/08 09:26:19;;;;;;;;;;;0.70;85.00;;;;;;5090303;28;20004;-69
2022/01/08 09:28:45;;;;;;;;;;;0.80;84.50;;;;;;5090257;28;19982;-69
2022/01/08 09:31:11;;;;;;;;;;;0.90;83.90;;;;;;5090545;28;19930;-67
2022/01/08 09:33:36;;;;;;;;;;;1.00;84.10;;;;;;5090519;28;19908;-67
2022/01/08 09:36:02;;;;;;;;;;;1.10;83.90;;;;;;5090480;28;19958;-67
2022/01/08 09:38:28;;;;;;;;;;;1.20;83.60;;;;;;5090128;28;19912;-67
2022/01/08 09:40:54;;;;;;;;;;;1.50;82.20;;;;;;5090365;28;19961;-66
2022/01/08 09:43:19;;;;;;;;;;;1.70;78.70;;;;;;5090252;28;20015;-66
2022/01/08 09:45:45;;;;;;;;;;;1.80;77.20;;;;;;5090504;28;20354;-66
2022/01/08 09:48:11;;;;;;;;;;;1.90;77.00;;;;;;5090017;28;20397;-65
2022/01/08 09:50:36;;;;;;;;;;;1.90;76.00;;;;;;5090166;28;20432;-66
2022/01/08 09:53:02;;;;;;;;;;;2.00;75.40;;;;;;5090166;28;19912;-66
2022/01/08 09:55:28;;;;;;;;;;;2.10;75.30;;;;;;5089766;28;19948;-66
2022/01/08 09:57:54;;;;;;;;;;;2.10;74.60;;;;;;5090070;28;20273;-66
2022/01/08 10:00:20;;;;;;;;;;;2.20;74.00;;;;;;5090076;28;19999;-66
2022/01/08 10:02:46;;;;;;;;;;;2.30;73.60;;;;;;5089929;28;20430;-66
2022/01/08 10:05:13;;;;;;;;;;;2.30;73.60;;;;;;5089906;28;19908;-66
2022/01/08 10:07:40;;;;;;;;;;;2.40;70.90;;;;;;5088562;28;20259;-66
2022/01/08 10:10:15;;;;;;;;;;;2.50;70.70;;;;;;5089764;28;19961;-66
2022/01/08 10:12:53;;;;;;;;;;;2.50;72.00;;;;;;5089777;28;19909;-66
2022/01/08 10:18:36;;;;;;;;;;;2.90;68.30;;;;;;5089696;28;19915;-66
2022/01/08 10:21:17;;;;;;;;;;;3.10;66.20;;;;;;5088720;28;19920;-66
2022/01/08 10:23:44;;;;;;;;;;;3.30;66.60;;;;;;5088701;28;19929;-66
2022/01/08 10:26:10;;;;;;;;;;;3.40;66.60;;;;;;5089434;28;20274;-66
2022/01/08 10:28:51;;;;;;;;;;;3.40;63.10;;;;;;5087813;28;19919;-66
2022/01/08 10:31:17;;;;;;;;;;;3.30;60.60;;;;;;5069088;28;19912;-66
2022/01/08 10:33:44;;;;;;;;;;;3.20;60.20;;;;;;5064522;28;19909;-66
2022/01/08 10:36:11;;;;;;;;;;;3.30;59.00;;;;;;5072334;28;19919;-66
2022/01/08 10:38:37;;;;;;;;;;;3.30;57.50;;;;;;5075390;28;19935;-66
2022/01/08 10:41:03;;;;;;;;;;;3.40;59.10;;;;;;5073798;28;20282;-66
2022/01/08 10:43:30;;;;;;;;;;;3.40;60.90;;;;;;5075281;28;19912;-66
2022/01/08 10:46:06;;;;;;;;;;;3.50;58.90;;;;;;5074839;28;19923;-66
2022/01/08 10:48:32;;;;;;;;;;;3.50;59.80;;;;;;5075285;28;19909;-66
2022/01/08 10:51:08;;;;;;;;;;;3.60;59.80;;;;;;5074471;28;20384;-66
2022/01/08 10:53:53;;;;;;;;;;;3.60;60.10;;;;;;5073932;28;19951;-66
2022/01/08 10:56:26;;;;;;;;;;;3.70;59.00;;;;;;5075803;28;19955;-66
2022/01/08 10:58:56;;;;;;;;;;;3.90;57.30;;;;;;5075466;28;19962;-66
2022/01/08 11:01:54;;;;;;;;;;;4.00;57.70;;;;;;5074851;28;19912;-66
2022/01/08 11:04:32;;;;;;;;;;;4.20;56.30;;;;;;5072368;28;19916;-66
2022/01/08 11:06:59;;;;;;;;;;;4.40;56.00;;;;;;5075235;28;19909;-66
2022/01/08 11:09:25;;;;;;;;;;;4.70;52.50;;;;;;5074616;28;19916;-66
2022/01/08 11:11:51;;;;;;;;;;;4.60;50.50;;;;;;5075426;28;19946;-66
2022/01/08 11:22:53;;;;;;;;;;;4.70;48.20;;;;;;5119954;27;20322;-66
2022/01/08 11:34:15;;;;;;;;;;;5.10;46.70;;;;;;5111148;27;19912;-68
2022/01/08 11:36:43;;;;;;;;;;;5.10;48.20;;;;;;5108466;28;19912;-65
2022/01/08 11:39:09;;;;;;;;;;;5.20;45.70;;;;;;5110946;28;20002;-65
2022/01/08 11:41:35;;;;;;;;;;;5.30;45.50;;;;;;5105316;28;19935;-65
2022/01/08 11:44:03;;;;;;;;;;;5.20;44.60;;;;;;5110180;28;20390;-65
2022/01/08 11:46:34;;;;;;;;;;;5.20;44.70;;;;;;5110558;28;19978;-65
2022/01/08 11:48:59;;;;;;;;;;;5.30;47.20;;;;;;5110493;28;20407;-65
2022/01/08 11:51:27;;;;;;;;;;;5.50;47.30;;;;;;5097299;28;19970;-66
2022/01/08 11:53:56;;;;;;;;;;;5.90;46.60;;;;;;5090280;28;20277;-65
2022/01/08 11:56:23;;;;;;;;;;;6.50;46.80;;;;;;5111922;28;19957;-65
2022/01/08 11:59:08;;;;;;;;;;;7.00;43.70;;;;;;5112140;27;19912;-65
2022/01/08 12:01:35;;;;;;;;;;;7.10;43.70;;;;;;5110868;28;19908;-66
2022/01/08 12:04:31;;;;;;;;;;;7.30;45.00;;;;;;5147271;27;20377;-66
2022/01/08 12:06:57;;;;;;;;;;;7.50;44.40;;;;;;5131507;28;19933;-66
2022/01/08 12:09:24;;;;;;;;;;;7.60;43.80;;;;;;5131397;28;20420;-66
2022/01/08 12:11:52;;;;;;;;;;;7.80;45.40;;;;;;5112669;28;19914;-66
2022/01/08 12:14:21;;;;;;;;;;;8.20;44.50;;;;;;5112767;28;20039;-66
2022/01/08 12:30:37;;;;;;;;;;;8.50;40.50;;;;;;5095825;27;19923;-66
2022/01/08 12:33:19;;;;;;;;;;;8.60;41.00;;;;;;5090938;28;20431;-66
2022/01/08 12:35:44;;;;;;;;;;;9.30;41.30;;;;;;5091677;28;19915;-66
2022/01/08 12:48:00;;;;;;;;;;;9.40;41.30;;;;;;5111086;27;19912;-66
2022/01/08 12:52:36;;;;;;;;;;;10.60;38.60;;;;;;5111122;27;19912;-66
2022/01/08 12:55:10;;;;;;;;;;;11.30;35.70;;;;;;5110298;28;19919;-66
2022/01/08 12:59:08;;;;;;;;;;;11.60;34.90;;;;;;5102556;27;19946;-67
2022/01/08 13:01:34;;;;;;;;;;;11.10;34.90;;;;;;5090418;28;20046;-67
2022/01/08 13:03:59;;;;;;;;;;;11.50;35.60;;;;;;5123428;28;19909;-67
2022/01/08 13:06:27;;;;;;;;;;;11.90;35.10;;;;;;5090259;28;19962;-67
2022/01/08 13:08:53;;;;;;;;;;;12.30;34.40;;;;;;5123227;27;19915;-67
2022/01/08 13:11:20;;;;;;;;;;;11.70;35.50;;;;;;5090470;28;20461;-67
2022/01/08 13:13:53;;;;;;;;;;;11.30;36.10;;;;;;5090321;28;19908;-67
2022/01/08 13:16:20;;;;;;;;;;;11.30;37.60;;;;;;5076730;28;19969;-67
2022/01/08 13:18:56;;;;;;;;;;;11.40;36.60;;;;;;5069917;28;19913;-67
2022/01/08 13:21:24;;;;;;;;;;;11.30;35.80;;;;;;5071042;28;19912;-67
2022/01/08 13:23:50;;;;;;;;;;;11.10;36.30;;;;;;5102574;28;19913;-66
2022/01/08 13:26:25;;;;;;;;;;;10.80;37.00;;;;;;5082382;28;20540;-66
2022/01/08 13:28:51;;;;;;;;;;;10.60;38.10;;;;;;5090059;28;19958;-67
2022/01/08 13:31:16;;;;;;;;;;;11.20;37.20;;;;;;5090014;28;20312;-67
2022/01/08 13:33:52;;;;;;;;;;;11.90;35.60;;;;;;5086556;28;20015;-67
2022/01/08 13:36:18;;;;;;;;;;;12.70;34.30;;;;;;5072746;28;19912;-67
2022/01/08 13:38:43;;;;;;;;;;;12.80;33.10;;;;;;5069619;28;20390;-67
2022/01/08 13:41:14;;;;;;;;;;;12.70;33.80;;;;;;5088625;28;19946;-67
2022/01/08 13:43:57;;;;;;;;;;;12.80;33.60;;;;;;5089791;28;19956;-67
2022/01/08 13:46:24;;;;;;;;;;;12.90;33.30;;;;;;5071544;28;19920;-67
2022/01/08 13:48:50;;;;;;;;;;;13.40;32.40;;;;;;5069442;28;19940;-67
2022/01/08 13:51:16;;;;;;;;;;;13.30;31.40;;;;;;5083615;28;19997;-67
2022/01/08 13:53:53;;;;;;;;;;;12.90;33.10;;;;;;5088359;28;20022;-67
2022/01/08 13:56:23;;;;;;;;;;;12.90;33.50;;;;;;5081843;28;19970;-67
2022/01/08 13:58:49;;;;;;;;;;;13.20;32.80;;;;;;5089282;28;19931;-67
2022/01/08 14:01:14;;;;;;;;;;;13.60;30.70;;;;;;5088247;28;19940;-67
2022/01/08 14:03:45;;;;;;;;;;;13.60;30.50;;;;;;5089436;28;20451;-67
2022/01/08 14:06:22;;;;;;;;;;;13.20;30.30;;;;;;5074358;28;19920;-67
2022/01/08 14:08:52;;;;;;;;;;;13.00;31.70;;;;;;5064883;28;19909;-67
2022/01/08 14:11:19;;;;;;;;;;;12.90;32.60;;;;;;5055836;28;19959;-67
2022/01/08 14:13:46;;;;;;;;;;;13.10;31.60;;;;;;5056089;28;19931;-67
2022/01/08 14:16:12;;;;;;;;;;;13.40;30.80;;;;;;5060484;28;19920;-67
2022/01/08 14:18:38;;;;;;;;;;;13.10;31.10;;;;;;5055815;28;20003;-67
2022/01/08 14:21:14;;;;;;;;;;;12.90;32.70;;;;;;5066445;28;20271;-67
2022/01/08 14:23:40;;;;;;;;;;;12.70;33.10;;;;;;5075606;28;19908;-67
2022/01/08 14:26:16;;;;;;;;;;;12.50;32.70;;;;;;5062444;28;19912;-67
2022/01/08 14:28:42;;;;;;;;;;;12.40;33.80;;;;;;5055708;28;19945;-67
2022/01/08 14:31:12;;;;;;;;;;;12.10;34.00;;;;;;5055560;28;20318;-67
2022/01/08 14:33:56;;;;;;;;;;;12.30;34.40;;;;;;5056372;28;20386;-67
2022/01/08 14:36:22;;;;;;;;;;;11.90;34.50;;;;;;5055381;28;19913;-67
2022/01/08 14:38:48;;;;;;;;;;;11.50;36.00;;;;;;5073758;28;20290;-67
2022/01/08 14:41:13;;;;;;;;;;;11.90;36.00;;;;;;5073942;28;19912;-67
2022/01/08 14:43:39;;;;;;;;;;;12.10;35.30;;;;;;5072488;28;19974;-67
2022/01/08 14:46:12;;;;;;;;;;;11.80;38.10;;;;;;5070731;28;19919;-67
2022/01/08 14:48:38;;;;;;;;;;;11.40;38.60;;;;;;5057576;28;19912;-67
2022/01/08 14:51:04;;;;;;;;;;;11.20;39.70;;;;;;5075197;28;19909;-67
2022/01/08 14:53:31;;;;;;;;;;;11.10;40.20;;;;;;5067029;28;20267;-67
2022/01/08 14:55:56;;;;;;;;;;;10.90;40.90;;;;;;5070832;28;20088;-67
2022/01/08 14:58:22;;;;;;;;;;;10.90;40.90;;;;;;5074793;28;20407;-67
2022/01/08 15:00:47;;;;;;;;;;;10.70;41.50;;;;;;5075259;28;20387;-66
2022/01/08 15:03:13;;;;;;;;;;;10.40;43.00;;;;;;5069346;28;20314;-66
2022/01/08 15:05:38;;;;;;;;;;;9.90;44.90;;;;;;5054853;28;20396;-66
2022/01/08 15:08:04;;;;;;;;;;;9.80;45.00;;;;;;5054840;28;20383;-66
2022/01/08 15:10:30;;;;;;;;;;;9.70;45.20;;;;;;5070537;28;19939;-66
2022/01/08 15:12:56;;;;;;;;;;;9.50;45.80;;;;;;5071757;28;19916;-67
2022/01/08 15:15:21;;;;;;;;;;;9.20;45.80;;;;;;5054701;28;19909;-66
2022/01/08 15:17:47;;;;;;;;;;;8.90;46.60;;;;;;5062332;28;19917;-66
2022/01/08 15:20:13;;;;;;;;;;;8.50;48.10;;;;;;5069218;28;19912;-66
2022/01/08 15:22:39;;;;;;;;;;;8.10;50.10;;;;;;5068917;28;20057;-66
2022/01/08 15:25:05;;;;;;;;;;;7.80;50.80;;;;;;5054442;28;19912;-66
2022/01/08 15:27:30;;;;;;;;;;;7.50;51.90;;;;;;5064609;28;19962;-66
2022/01/08 15:29:57;;;;;;;;;;;7.20;53.40;;;;;;5074382;28;20317;-66
2022/01/08 15:32:23;;;;;;;;;;;6.90;54.00;;;;;;5071348;28;19913;-66
2022/01/08 15:34:50;;;;;;;;;;;6.60;55.60;;;;;;5060756;28;19999;-67
2022/01/08 15:37:15;;;;;;;;;;;6.20;57.10;;;;;;5054694;28;20027;-66
2022/01/08 15:39:41;;;;;;;;;;;5.90;58.60;;;;;;5054197;28;20377;-67
2022/01/08 15:42:08;;;;;;;;;;;5.60;59.90;;;;;;5069549;28;20011;-66
2022/01/08 15:44:35;;;;;;;;;;;5.30;61.70;;;;;;5054080;28;19951;-66
2022/01/08 15:47:00;;;;;;;;;;;5.10;62.70;;;;;;5053246;28;19931;-67
2022/01/08 15:49:26;;;;;;;;;;;5.00;63.00;;;;;;5053119;28;20322;-66
2022/01/08 15:51:52;;;;;;;;;;;4.90;63.70;;;;;;5053644;28;19909;-66
2022/01/08 15:54:17;;;;;;;;;;;4.80;64.70;;;;;;5053458;28;20004;-67
2022/01/08 15:56:43;;;;;;;;;;;4.70;65.80;;;;;;5052718;28;19963;-67
2022/01/08 15:59:08;;;;;;;;;;;4.50;66.90;;;;;;5053749;28;19921;-66
2022/01/08 16:01:34;;;;;;;;;;;4.40;67.70;;;;;;5053782;28;20214;-66
2022/01/08 16:04:00;;;;;;;;;;;4.40;68.40;;;;;;5053695;28;19909;-66
2022/01/08 16:06:26;;;;;;;;;;;4.30;69.20;;;;;;5053686;28;19995;-66
2022/01/08 16:08:51;;;;;;;;;;;4.20;68.90;;;;;;5053508;28;19908;-66
2022/01/08 16:11:17;;;;;;;;;;;4.10;68.30;;;;;;5053591;28;19916;-66
2022/01/08 16:13:43;;;;;;;;;;;3.90;68.40;;;;;;5053542;28;19940;-66
2022/01/08 16:16:08;;;;;;;;;;;3.90;68.90;;;;;;5053542;28;19916;-66
2022/01/08 16:18:34;;;;;;;;;;;3.80;69.40;;;;;;5053427;28;20224;-66
2022/01/08 16:21:00;;;;;;;;;;;3.70;70.00;;;;;;5053716;28;19909;-66
2022/01/08 16:23:25;;;;;;;;;;;3.70;70.20;;;;;;5053447;28;19940;-66
2022/01/08 16:25:52;;;;;;;;;;;3.60;70.80;;;;;;5053315;28;19954;-66
2022/01/08 16:28:18;;;;;;;;;;;3.60;71.00;;;;;;5053232;28;19916;-66
2022/01/08 16:30:44;;;;;;;;;;;3.50;71.40;;;;;;5053323;28;19909;-66
2022/01/08 16:33:10;;;;;;;;;;;3.50;71.60;;;;;;5053049;28;19913;-66
2022/01/08 16:35:36;;;;;;;;;;;3.50;72.00;;;;;;5053230;28;20282;-66
2022/01/08 16:38:02;;;;;;;;;;;3.40;72.10;;;;;;5053135;28;19921;-66
2022/01/08 16:40:27;;;;;;;;;;;3.30;72.20;;;;;;5053147;28;19909;-66
2022/01/08 16:42:53;;;;;;;;;;;3.30;72.40;;;;;;5053123;28;19915;-66
2022/01/08 16:45:19;;;;;;;;;;;3.30;72.80;;;;;;5053140;28;19936;-66
2022/01/08 16:47:44;;;;;;;;;;;3.20;73.20;;;;;;5053124;28;19909;-66
2022/01/08 16:50:11;;;;;;;;;;;3.20;73.30;;;;;;5053083;28;20392;-66
2022/01/08 16:52:36;;;;;;;;;;;3.20;73.30;;;;;;5085668;28;19935;-66
2022/01/08 16:55:04;;;;;;;;;;;3.20;73.40;;;;;;5053038;28;19909;-66
2022/01/08 16:57:30;;;;;;;;;;;3.10;73.40;;;;;;5052937;28;19929;-66
2022/01/08 16:59:55;;;;;;;;;;;3.00;73.50;;;;;;5052966;28;19962;-66
2022/01/08 17:02:21;;;;;;;;;;;2.90;74.10;;;;;;5052977;28;19908;-66
2022/01/08 17:04:46;;;;;;;;;;;2.90;74.20;;;;;;5052990;28;19932;-66
2022/01/08 17:07:12;;;;;;;;;;;2.90;74.40;;;;;;5052952;28;20302;-66
2022/01/08 17:09:37;;;;;;;;;;;2.80;74.40;;;;;;5052837;28;20331;-66
2022/01/08 17:12:03;;;;;;;;;;;2.70;74.60;;;;;;5052889;28;20374;-66
2022/01/08 17:14:29;;;;;;;;;;;2.60;75.10;;;;;;5052860;28;20004;-66
2022/01/08 17:16:55;;;;;;;;;;;2.50;75.90;;;;;;5052750;28;20011;-66
2022/01/08 17:19:21;;;;;;;;;;;2.50;76.40;;;;;;5052817;28;19909;-66
2022/01/08 17:21:47;;;;;;;;;;;2.40;77.30;;;;;;5052813;28;20016;-66
2022/01/08 17:24:12;;;;;;;;;;;2.40;78.20;;;;;;5052769;28;19996;-66
2022/01/08 17:26:38;;;;;;;;;;;2.30;78.30;;;;;;5085167;28;19935;-66
2022/01/08 17:29:04;;;;;;;;;;;2.20;78.10;;;;;;5052692;28;19909;-66
2022/01/08 17:31:30;;;;;;;;;;;2.20;78.10;;;;;;5052686;28;19978;-66
2022/01/08 17:33:55;;;;;;;;;;;2.10;78.20;;;;;;5052670;28;19913;-66
2022/01/08 17:36:21;;;;;;;;;;;2.00;78.50;;;;;;5052930;28;19944;-66
2022/01/08 17:38:47;;;;;;;;;;;2.00;80.20;;;;;;5052574;28;20367;-66
2022/01/08 17:41:12;;;;;;;;;;;2.00;80.10;;;;;;5052609;28;19932;-66
2022/01/08 17:43:38;;;;;;;;;;;1.90;80.00;;;;;;5052661;28;19909;-66
2022/01/08 17:46:04;;;;;;;;;;;1.90;80.30;;;;;;5071781;28;19909;-66
2022/01/08 17:48:29;;;;;;;;;;;1.90;81.00;;;;;;5056363;28;19920;-66
2022/01/08 17:50:55;;;;;;;;;;;1.90;81.00;;;;;;5056341;28;19967;-66
2022/01/08 17:53:20;;;;;;;;;;;1.90;80.30;;;;;;5056262;28;19963;-66
2022/01/08 17:55:47;;;;;;;;;;;1.90;80.00;;;;;;5056226;28;19909;-66
2022/01/08 17:58:12;;;;;;;;;;;2.00;80.40;;;;;;5056072;28;19920;-66
2022/01/08 18:00:38;;;;;;;;;;;2.00;80.40;;;;;;5056126;28;19916;-66
2022/01/08 18:03:03;;;;;;;;;;;2.00;80.30;;;;;;5056062;28;19912;-66
2022/01/08 18:05:29;;;;;;;;;;;2.00;80.00;;;;;;5056030;28;20302;-66
2022/01/08 18:07:55;;;;;;;;;;;2.00;80.40;;;;;;5056465;28;19916;-66
2022/01/08 18:10:21;;;;;;;;;;;1.90;80.10;;;;;;5055876;28;19909;-66
2022/01/08 18:12:46;;;;;;;;;;;1.70;79.60;;;;;;5055964;28;19909;-66
2022/01/08 18:15:13;;;;;;;;;;;1.50;79.70;;;;;;5088178;28;20000;-66
2022/01/08 18:17:40;;;;;;;;;;;1.50;80.40;;;;;;5055761;28;19920;-66
2022/01/08 18:20:09;;;;;;;;;;;1.50;80.80;;;;;;5055789;28;20323;-66
2022/01/08 18:22:35;;;;;;;;;;;1.50;81.00;;;;;;5055761;28;19923;-66
2022/01/08 18:25:01;;;;;;;;;;;1.50;81.20;;;;;;5087992;28;20317;-66
2022/01/08 18:27:26;;;;;;;;;;;1.50;81.10;;;;;;5055502;28;20377;-66
2022/01/08 18:29:52;;;;;;;;;;;1.50;81.00;;;;;;5055589;28;19909;-66
2022/01/08 18:32:17;;;;;;;;;;;1.40;81.20;;;;;;5055495;28;19990;-66
2022/01/08 18:34:43;;;;;;;;;;;1.30;81.00;;;;;;5055458;28;19909;-66
2022/01/08 18:37:08;;;;;;;;;;;1.20;80.40;;;;;;5055373;28;19924;-66
2022/01/08 18:39:34;;;;;;;;;;;0.90;80.50;;;;;;5055332;28;19908;-66
2022/01/08 18:42:00;;;;;;;;;;;0.60;82.10;;;;;;5055337;28;19919;-66
2022/01/08 18:44:26;;;;;;;;;;;0.50;83.10;;;;;;5070713;28;20355;-66
2022/01/08 18:46:53;;;;;;;;;;;0.50;84.30;;;;;;5054510;28;19998;-66
2022/01/08 18:49:19;;;;;;;;;;;0.40;84.80;;;;;;5054878;28;19916;-66
2022/01/08 18:51:45;;;;;;;;;;;0.40;85.40;;;;;;5055188;28;19913;-66
2022/01/08 18:54:11;;;;;;;;;;;0.40;85.40;;;;;;5055031;28;19915;-66
2022/01/08 18:56:36;;;;;;;;;;;0.40;85.60;;;;;;5053175;28;19909;-66
2022/01/08 18:59:02;;;;;;;;;;;0.30;86.10;;;;;;5054701;28;19921;-66
2022/01/08 19:01:28;;;;;;;;;;;0.30;86.60;;;;;;5054944;28;19909;-66
2022/01/08 19:03:54;;;;;;;;;;;0.30;87.00;;;;;;5053624;28;20272;-66
2022/01/08 19:06:19;;;;;;;;;;;0.20;87.20;;;;;;5054846;28;19932;-66
2022/01/08 19:08:45;;;;;;;;;;;0.20;87.40;;;;;;5054727;28;19909;-66
2022/01/08 19:11:10;;;;;;;;;;;0.20;87.30;;;;;;5054773;28;19916;-66
2022/01/08 19:13:36;;;;;;;;;;;0.30;87.30;;;;;;5054689;28;19916;-66
2022/01/08 19:16:02;;;;;;;;;;;0.20;87.00;;;;;;5054705;28;19909;-66
2022/01/08 19:18:28;;;;;;;;;;;0.20;87.00;;;;;;5054571;28;19913;-66
2022/01/08 19:20:53;;;;;;;;;;;0.20;88.50;;;;;;5054592;28;19909;-66
2022/01/08 19:23:19;;;;;;;;;;;0.20;89.10;;;;;;5054834;28;19916;-66
2022/01/08 19:25:44;;;;;;;;;;;0.40;89.30;;;;;;5054472;28;19945;-66
2022/01/08 19:28:10;;;;;;;;;;;0.50;89.10;;;;;;5053049;28;19909;-66
2022/01/08 19:30:36;;;;;;;;;;;0.50;88.80;;;;;;5054406;28;19915;-66
2022/01/08 19:33:02;;;;;;;;;;;0.50;88.70;;;;;;5054313;28;19959;-66
2022/01/08 19:35:27;;;;;;;;;;;0.40;87.90;;;;;;5054304;28;19948;-66
2022/01/08 19:37:53;;;;;;;;;;;0.30;87.90;;;;;;5054181;28;20329;-66
2022/01/08 19:40:19;;;;;;;;;;;0.20;88.60;;;;;;5054201;28;19950;-66
2022/01/08 19:42:44;;;;;;;;;;;0.10;89.00;;;;;;5054119;28;19983;-66
2022/01/08 19:45:10;;;;;;;;;;;0.00;89.20;;;;;;5054063;28;20352;-66
2022/01/08 19:47:36;;;;;;;;;;;0.00;89.30;;;;;;5054052;28;19909;-66
2022/01/08 19:50:04;;;;;;;;;;;0.00;89.50;;;;;;5053788;28;19940;-66
2022/01/08 19:52:30;;;;;;;;;;;0.00;89.60;;;;;;5053936;28;19913;-66
2022/01/08 19:54:57;;;;;;;;;;;0.10;89.50;;;;;;5053928;28;20259;-66
2022/01/08 19:57:23;;;;;;;;;;;0.10;89.60;;;;;;5068929;28;19921;-66
2022/01/08 19:59:49;;;;;;;;;;;0.10;89.10;;;;;;5053780;28;20058;-66
2022/01/08 20:02:16;;;;;;;;;;;0.10;89.10;;;;;;5053785;28;20003;-66
2022/01/08 20:04:42;;;;;;;;;;;0.10;89.30;;;;;;5053753;28;19909;-66
2022/01/08 20:07:08;;;;;;;;;;;0.10;89.30;;;;;;5053209;28;19931;-66
2022/01/08 20:09:35;;;;;;;;;;;0.20;89.00;;;;;;5053591;28;19915;-66
2022/01/08 20:12:01;;;;;;;;;;;0.30;88.90;;;;;;5053587;28;19909;-66
2022/01/08 20:14:27;;;;;;;;;;;0.40;88.50;;;;;;5053555;28;19944;-67
2022/01/08 20:16:52;;;;;;;;;;;0.40;88.00;;;;;;5053520;28;19951;-66
2022/01/08 20:19:18;;;;;;;;;;;0.50;87.40;;;;;;5053433;28;20351;-66
2022/01/08 20:21:44;;;;;;;;;;;0.50;87.20;;;;;;5053479;28;20344;-66
2022/01/08 20:24:10;;;;;;;;;;;0.50;86.80;;;;;;5053401;28;19996;-66
2022/01/08 20:26:36;;;;;;;;;;;0.50;86.50;;;;;;5053289;28;19940;-66
2022/01/08 20:29:02;;;;;;;;;;;0.40;86.90;;;;;;5053307;28;19959;-66
2022/01/08 20:31:28;;;;;;;;;;;0.50;87.30;;;;;;5053350;28;20377;-66
2022/01/08 20:33:53;;;;;;;;;;;0.40;87.20;;;;;;5053292;28;19915;-66
2022/01/08 20:36:19;;;;;;;;;;;0.10;86.70;;;;;;5053251;28;19959;-66
2022/01/08 20:38:44;;;;;;;;;;;0.00;87.40;;;;;;5053140;28;20298;-66
2022/01/08 20:41:11;;;;;;;;;;;0.00;88.10;;;;;;5053193;28;19946;-66
2022/01/08 20:43:37;;;;;;;;;;;0.00;87.80;;;;;;5053155;28;19931;-66
2022/01/08 20:46:03;;;;;;;;;;;-3276.70;88.10;;;;;;5053124;28;20422;-66
2022/01/08 20:48:29;;;;;;;;;;;-3276.50;88.70;;;;;;5053101;28;20394;-66
2022/01/08 20:50:54;;;;;;;;;;;-3276.50;89.00;;;;;;5053062;28;19908;-66
2022/01/08 20:53:20;;;;;;;;;;;-3276.50;89.30;;;;;;5053066;28;19968;-66
2022/01/08 20:55:45;;;;;;;;;;;-3276.60;89.40;;;;;;5053047;28;19908;-66
2022/01/08 20:58:11;;;;;;;;;;;-3276.60;89.20;;;;;;5073205;22;20030;-66
2022/01/08 21:00:37;;;;;;;;;;;-3276.60;89.10;;;;;;5055051;28;19908;-66
2022/01/08 21:03:03;;;;;;;;;;;-3276.60;89.00;;;;;;5072988;28;19909;-66
2022/01/08 21:05:29;;;;;;;;;;;-3276.70;89.00;;;;;;5073002;28;19909;-66
2022/01/08 21:07:54;;;;;;;;;;;0.00;88.80;;;;;;5072975;28;19914;-66
2022/01/08 21:10:20;;;;;;;;;;;0.00;88.50;;;;;;5069872;28;20369;-66
2022/01/08 21:12:46;;;;;;;;;;;0.00;88.40;;;;;;5072935;28;19959;-66
2022/01/08 21:15:12;;;;;;;;;;;0.00;88.10;;;;;;5072906;28;19913;-66
2022/01/08 21:17:38;;;;;;;;;;;0.00;87.90;;;;;;5072796;28;19927;-66
2022/01/08 21:20:05;;;;;;;;;;;0.00;88.00;;;;;;5075594;28;19908;-66
2022/01/08 21:22:30;;;;;;;;;;;0.00;88.00;;;;;;5076851;28;19912;-66
2022/01/08 21:24:56;;;;;;;;;;;0.00;88.00;;;;;;5075550;28;20445;-66
2022/01/08 21:27:22;;;;;;;;;;;0.00;87.60;;;;;;5076645;28;19908;-66
2022/01/08 21:29:48;;;;;;;;;;;0.00;87.40;;;;;;5076774;28;19997;-66
2022/01/08 21:32:13;;;;;;;;;;;0.00;87.00;;;;;;5076683;28;19948;-66
2022/01/08 21:34:41;;;;;;;;;;;0.10;86.80;;;;;;5076625;28;20374;-66
2022/01/08 21:37:09;;;;;;;;;;;0.00;86.80;;;;;;5076496;28;19909;-66
2022/01/08 21:39:37;;;;;;;;;;;0.10;86.60;;;;;;5076591;28;19909;-66
2022/01/08 21:42:03;;;;;;;;;;;0.10;86.40;;;;;;5076469;28;20305;-66
2022/01/08 21:44:31;;;;;;;;;;;0.00;86.40;;;;;;5075173;28;19958;-66
2022/01/08 21:46:58;;;;;;;;;;;0.00;86.40;;;;;;5076655;28;19916;-66
2022/01/08 21:49:24;;;;;;;;;;;0.00;85.80;;;;;;5076601;28;19916;-66
2022/01/08 21:51:49;;;;;;;;;;;-3276.60;86.00;;;;;;5076262;28;19916;-66
2022/01/08 21:54:15;;;;;;;;;;;-3276.60;86.00;;;;;;5076216;28;19914;-66
2022/01/08 21:56:41;;;;;;;;;;;-3276.60;86.00;;;;;;5076187;28;19935;-66
2022/01/08 21:59:10;;;;;;;;;;;-3276.70;85.20;;;;;;5076120;28;20420;-66
2022/01/08 22:01:41;;;;;;;;;;;-3276.70;85.00;;;;;;5076075;28;19951;-66
2022/01/08 22:04:08;;;;;;;;;;;-3276.60;84.90;;;;;;5076057;28;20418;-66
2022/01/08 22:06:34;;;;;;;;;;;-3276.60;85.00;;;;;;5076315;28;19908;-66
2022/01/08 22:09:00;;;;;;;;;;;-3276.50;85.00;;;;;;5076162;28;19913;-66
2022/01/08 22:11:27;;;;;;;;;;;-3276.50;85.20;;;;;;5075893;28;19908;-66
2022/01/08 22:13:54;;;;;;;;;;;-3276.50;85.30;;;;;;5074612;28;19995;-66
2022/01/08 22:16:19;;;;;;;;;;;-3276.50;85.40;;;;;;5075814;28;19954;-66
2022/01/08 22:18:45;;;;;;;;;;;-3276.60;85.30;;;;;;5075753;28;19912;-66
2022/01/08 22:21:10;;;;;;;;;;;-3276.60;85.30;;;;;;5075727;28;19908;-66
2022/01/08 22:23:36;;;;;;;;;;;-3276.50;85.20;;;;;;5075995;28;20278;-66
2022/01/08 22:26:01;;;;;;;;;;;-3276.40;85.50;;;;;;5075616;28;19908;-66
2022/01/08 22:28:27;;;;;;;;;;;-3276.30;86.10;;;;;;5075518;28;19951;-66
2022/01/08 22:30:53;;;;;;;;;;;-3276.40;86.40;;;;;;5075101;28;19916;-66
2022/01/08 22:33:19;;;;;;;;;;;-3276.40;86.80;;;;;;5075536;28;19908;-66
2022/01/08 22:35:44;;;;;;;;;;;-3276.40;86.80;;;;;;5075479;28;19908;-66
2022/01/08 22:38:10;;;;;;;;;;;-3276.30;86.80;;;;;;5075350;28;19917;-66
2022/01/08 22:40:36;;;;;;;;;;;-3276.30;86.50;;;;;;5075428;28;19908;-66
2022/01/08 22:43:01;;;;;;;;;;;-3276.40;86.30;;;;;;5075375;28;20428;-66
2022/01/08 22:45:27;;;;;;;;;;;-3276.40;86.50;;;;;;5075322;28;19909;-66
2022/01/08 22:47:53;;;;;;;;;;;-3276.40;86.30;;;;;;5075294;28;19909;-66
2022/01/08 22:50:19;;;;;;;;;;;-3276.20;86.00;;;;;;5075234;28;19912;-66
2022/01/08 22:52:44;;;;;;;;;;;-3276.10;86.50;;;;;;5075219;28;20277;-66
2022/01/08 22:55:10;;;;;;;;;;;-3276.10;86.80;;;;;;5075136;28;20282;-66
2022/01/08 22:57:36;;;;;;;;;;;-3276.10;87.30;;;;;;5074881;28;19927;-66
2022/01/08 23:00:05;;;;;;;;;;;-3276.10;87.40;;;;;;5075052;28;19908;-66
2022/01/08 23:02:30;;;;;;;;;;;-3276.10;87.30;;;;;;5074976;28;19977;-66
2022/01/08 23:04:56;;;;;;;;;;;-3276.20;87.70;;;;;;5074950;28;20373;-66
2022/01/08 23:07:23;;;;;;;;;;;-3276.30;88.00;;;;;;5074897;28;20427;-66
2022/01/08 23:09:49;;;;;;;;;;;-3276.30;88.30;;;;;;5073469;28;19908;-66
2022/01/08 23:12:15;;;;;;;;;;;-3276.30;88.40;;;;;;5074869;28;19913;-66
2022/01/08 23:14:41;;;;;;;;;;;-3276.30;88.30;;;;;;5073504;28;19916;-66
2022/01/08 23:17:06;;;;;;;;;;;-3276.30;88.30;;;;;;5074627;28;19912;-66